Time;durP1;ratioP1;P1;durP2;ratioP2;P2;SDS_P1;SDS_P2;PMS_P1;PMS_P2;Temp;Humidity;BMP_temperature;BMP_pressure;BME280_temperature;BME280_humidity;BME280_pressure;Samples;Min_cycle;Max_cycle;Signal;HPM_P1;HPM_P2
2024/04/21 00:01:44;;;;;;;18.90;13.57;;;;;;;5.88;63.32;100459.34;5233476;27;95184;-81
2024/04/21 00:04:10;;;;;;;20.10;13.10;;;;;;;5.61;62.92;100424.94;5178791;27;94421;-81
2024/04/21 00:06:35;;;;;;;22.25;14.63;;;;;;;5.78;63.33;100455.09;5233901;27;94697;-81
2024/04/21 00:09:01;;;;;;;19.73;12.50;;;;;;;5.80;63.22;100458.56;5201612;27;97098;-81
2024/04/21 00:11:26;;;;;;;21.92;12.98;;;;;;;5.48;63.29;100404.25;5233784;27;94695;-81
2024/04/21 00:13:52;;;;;;;18.80;13.40;;;;;;;5.67;62.91;100445.69;5234470;27;94602;-81
2024/04/21 00:16:17;;;;;;;20.42;14.32;;;;;;;5.79;62.91;100444.69;5234027;27;95235;-82
2024/04/21 00:18:43;;;;;;;21.80;14.00;;;;;;;5.82;63.26;100454.22;5200912;27;97196;-81
2024/04/21 00:21:09;;;;;;;22.77;14.50;;;;;;;5.84;63.27;100458.50;5186106;27;97569;-81
2024/04/21 00:23:36;;;;;;;20.20;12.95;;;;;;;5.77;63.30;100448.19;5173899;27;94507;-81
2024/04/21 00:26:02;;;;;;;18.98;13.05;;;;;;;5.95;63.33;100474.03;5234036;27;95194;-81
2024/04/21 00:28:30;;;;;;;19.60;12.05;;;;;;;5.85;63.08;100454.16;5234151;27;94537;-81
2024/04/21 00:30:56;;;;;;;18.40;12.60;;;;;;;5.80;63.21;100437.72;5204978;27;97631;-81
2024/04/21 00:33:21;;;;;;;20.13;12.73;;;;;;;5.94;62.85;100458.44;5235779;26;94738;-81
2024/04/21 00:35:47;;;;;;;18.48;12.85;;;;;;;6.01;62.99;100475.69;5202839;27;94804;-81
2024/04/21 00:38:13;;;;;;;17.42;12.65;;;;;;;5.97;63.23;100468.81;5203017;27;97537;-81
2024/04/21 00:40:39;;;;;;;20.55;12.50;;;;;;;5.82;63.05;100439.44;5233525;27;94653;-81
2024/04/21 00:43:04;;;;;;;21.38;13.00;;;;;;;5.62;63.09;100417.97;5228941;26;94517;-81
2024/04/21 00:45:31;;;;;;;21.95;12.77;;;;;;;5.89;63.20;100461.91;5235633;26;94672;-81
2024/04/21 00:47:56;;;;;;;17.42;11.52;;;;;;;5.73;62.96;100443.88;5196831;27;97681;-81
2024/04/21 00:50:23;;;;;;;18.73;13.13;;;;;;;5.89;62.84;100477.53;5228294;27;96221;-81
2024/04/21 00:52:49;;;;;;;19.90;12.40;;;;;;;5.83;63.06;100463.72;5229103;27;94640;-81
2024/04/21 00:55:14;;;;;;;20.05;12.43;;;;;;;5.90;63.22;100478.41;5173069;27;94409;-80
2024/04/21 00:57:40;;;;;;;18.50;14.18;;;;;;;5.77;62.70;100462.06;5201508;27;97797;-80
2024/04/21 01:00:08;;;;;;;20.27;12.98;;;;;;;5.77;62.82;100469.88;5199048;27;97096;-81
2024/04/21 01:02:34;;;;;;;15.63;11.68;;;;;;;5.71;62.81;100475.16;5205386;27;94551;-81
2024/04/21 01:05:01;;;;;;;21.15;14.00;;;;;;;5.67;62.83;100465.66;5234254;27;94595;-81
2024/04/21 01:07:26;;;;;;;19.17;12.40;;;;;;;5.56;62.77;100444.94;5231821;26;94907;-81
2024/04/21 01:09:52;;;;;;;21.92;12.23;;;;;;;5.73;62.68;100486.44;5233354;27;94574;-81
2024/04/21 01:12:17;;;;;;;15.98;11.70;;;;;;;5.68;62.89;100477.81;5228062;26;94568;-80
2024/04/21 01:14:43;;;;;;;19.42;12.30;;;;;;;5.60;63.00;100464.00;5196905;27;94580;-81
2024/04/21 01:17:08;;;;;;;17.40;11.98;;;;;;;5.76;62.73;100480.31;5232661;27;97712;-81
2024/04/21 01:19:34;;;;;;;17.25;12.23;;;;;;;5.79;62.88;100482.88;5200953;27;94594;-80
2024/04/21 01:21:59;;;;;;;21.60;13.50;;;;;;;5.80;62.68;100484.63;5227623;26;94987;-81
2024/04/21 01:24:25;;;;;;;19.40;13.90;;;;;;;5.83;63.10;100489.78;5211033;27;94518;-81
2024/04/21 01:26:51;;;;;;;23.15;13.55;;;;;;;5.74;63.10;100469.91;5204845;27;97448;-81
2024/04/21 01:29:17;;;;;;;27.90;14.85;;;;;;;5.74;63.09;100471.66;5177447;27;97516;-81
2024/04/21 01:31:43;;;;;;;21.48;13.10;;;;;;;5.60;63.17;100440.56;5227725;27;94616;-80
2024/04/21 01:34:09;;;;;;;22.58;12.65;;;;;;;5.95;63.36;100494.88;5233522;27;94531;-80
2024/04/21 01:36:34;;;;;;;19.92;12.57;;;;;;;5.88;62.87;100490.59;5225479;26;94500;-81
2024/04/21 01:39:00;;;;;;;17.77;11.75;;;;;;;5.95;62.99;100494.03;5200557;27;97034;-81
2024/04/21 01:41:26;;;;;;;17.88;11.10;;;;;;;5.96;63.20;100495.72;5232137;26;94601;-81
2024/04/21 01:43:51;;;;;;;17.83;12.05;;;;;;;5.94;63.14;100498.38;5207876;27;94481;-80
2024/04/21 01:46:17;;;;;;;21.33;12.40;;;;;;;5.87;63.14;100486.25;5229550;26;94604;-81
2024/04/21 01:48:42;;;;;;;20.55;12.73;;;;;;;5.90;63.20;100494.91;5228627;26;94678;-80
2024/04/21 01:51:08;;;;;;;20.40;11.68;;;;;;;5.86;62.97;100489.75;5227704;27;94590;-81
2024/04/21 01:53:35;;;;;;;16.73;11.20;;;;;;;5.87;63.04;100481.91;5228592;27;94719;-81
2024/04/21 01:56:00;;;;;;;18.10;11.90;;;;;;;5.74;62.78;100453.44;5202092;27;97219;-81
2024/04/21 01:58:26;;;;;;;18.45;12.40;;;;;;;5.92;62.67;100481.84;5207313;27;96774;-80
2024/04/21 02:00:51;;;;;;;22.50;12.40;;;;;;;5.60;62.95;100436.22;5204820;27;94595;-81
2024/04/21 02:03:17;;;;;;;16.98;11.43;;;;;;;5.85;62.82;100482.81;5234625;27;94715;-80
2024/04/21 02:05:42;;;;;;;19.33;12.40;;;;;;;5.81;62.91;100494.13;5228533;26;94458;-81
2024/04/21 02:08:08;;;;;;;19.38;11.02;;;;;;;5.66;63.20;100461.31;5230682;27;95329;-81
2024/04/21 02:10:34;;;;;;;18.05;11.98;;;;;;;5.73;63.02;100472.53;5228394;27;94645;-81
2024/04/21 02:12:59;;;;;;;16.33;11.32;;;;;;;5.74;63.16;100469.06;5193532;27;94908;-81
2024/04/21 02:15:25;;;;;;;20.40;12.65;;;;;;;5.94;62.92;100487.94;5229696;27;97516;-81
2024/04/21 02:17:50;;;;;;;17.98;12.23;;;;;;;5.95;62.99;100489.66;5228093;27;94442;-81
2024/04/21 02:20:16;;;;;;;17.73;11.52;;;;;;;5.98;62.85;100489.63;5201631;27;94594;-81
2024/04/21 02:22:41;;;;;;;16.90;12.05;;;;;;;5.79;63.06;100456.81;5232414;27;94557;-81
2024/04/21 02:25:07;;;;;;;14.90;10.57;;;;;;;5.95;63.23;100487.06;5204567;27;97503;-81
2024/04/21 02:27:32;;;;;;;18.27;11.85;;;;;;;5.98;63.25;100489.63;5227597;27;94637;-81
2024/04/21 02:29:58;;;;;;;19.10;11.75;;;;;;;5.96;63.05;100482.69;5200431;27;94578;-81
2024/04/21 02:32:23;;;;;;;16.88;11.15;;;;;;;6.00;62.93;100484.41;5195394;27;94529;-81
2024/04/21 02:34:49;;;;;;;15.82;11.25;;;;;;;5.85;63.47;100473.25;5204481;27;97557;-79
2024/04/21 02:37:14;;;;;;;18.63;11.35;;;;;;;5.98;63.12;100483.56;5227371;27;94966;-79
2024/04/21 02:39:40;;;;;;;18.30;12.00;;;;;;;5.94;63.31;100476.66;5204987;27;94550;-79
2024/04/21 02:42:05;;;;;;;17.25;10.63;;;;;;;5.88;63.04;100451.53;5204189;27;93502;-79
2024/04/21 02:44:31;;;;;;;17.27;11.60;;;;;;;5.96;63.27;100482.69;5197751;27;93855;-79
2024/04/21 02:46:56;;;;;;;19.35;11.10;;;;;;;5.83;63.08;100458.53;5227370;27;94519;-80
2024/04/21 02:49:22;;;;;;;17.30;10.88;;;;;;;5.86;63.09;100472.38;5229998;27;94750;-79
2024/04/21 02:51:47;;;;;;;20.10;11.88;;;;;;;6.02;63.36;100496.53;5211143;27;94592;-79
2024/04/21 02:54:13;;;;;;;14.80;10.65;;;;;;;5.69;63.36;100448.25;5199747;27;94567;-80
2024/04/21 02:56:38;;;;;;;15.35;10.02;;;;;;;6.02;63.37;100508.69;5203542;27;97391;-79
2024/04/21 02:59:04;;;;;;;16.50;11.77;;;;;;;5.83;63.25;100469.81;5234477;26;94573;-79
2024/04/21 03:01:29;;;;;;;18.10;10.50;;;;;;;5.94;63.55;100489.69;5204680;27;94600;-79
2024/04/21 03:03:55;;;;;;;17.75;11.48;;;;;;;5.95;63.35;100489.66;5203737;27;97833;-79
2024/04/21 03:06:20;;;;;;;17.08;10.98;;;;;;;5.74;63.34;100453.44;5234362;27;94409;-79
2024/04/21 03:08:46;;;;;;;16.13;10.73;;;;;;;5.81;63.33;100468.09;5225160;27;94322;-79
2024/04/21 03:11:11;;;;;;;17.60;10.38;;;;;;;5.90;63.35;100486.22;5231754;27;94616;-79
2024/04/21 03:13:37;;;;;;;18.05;11.25;;;;;;;5.79;63.36;100455.09;5171163;27;97259;-79
2024/04/21 03:16:03;;;;;;;18.15;11.10;;;;;;;5.90;63.97;100488.81;5198343;27;97835;-79
2024/04/21 03:18:29;;;;;;;17.63;10.27;;;;;;;5.93;63.75;100482.72;5233892;26;94725;-79
2024/04/21 03:20:59;;;;;;;17.58;11.07;;;;;;;5.68;63.47;100452.63;5230248;27;94883;-79
2024/04/21 03:23:25;;;;;;;19.40;10.63;;;;;;;5.83;63.55;100472.41;5201612;27;97095;-79
2024/04/21 03:25:50;;;;;;;22.25;10.13;;;;;;;5.99;63.17;100504.41;5197269;27;97874;-79
2024/04/21 03:28:16;;;;;;;18.45;9.75;;;;;;;5.81;63.20;100466.34;5230491;27;94693;-79
2024/04/21 03:30:41;;;;;;;18.02;10.48;;;;;;;6.03;63.13;100502.63;5230490;26;94874;-80
2024/04/21 03:33:08;;;;;;;18.05;9.68;;;;;;;5.99;63.33;100495.69;5207008;27;94497;-80
2024/04/21 03:35:34;;;;;;;16.77;9.40;;;;;;;5.83;63.18;100458.53;5230969;26;94691;-80
2024/04/21 03:37:59;;;;;;;17.23;9.32;;;;;;;5.96;62.96;100478.34;5178910;27;94624;-80
2024/04/21 03:40:25;;;;;;;18.70;9.13;;;;;;;6.11;62.83;100498.16;5204454;27;95042;-80
2024/04/21 03:42:50;;;;;;;12.30;8.05;;;;;;;6.04;62.72;100488.69;5229104;27;94441;-80
2024/04/21 03:45:16;;;;;;;13.93;8.98;;;;;;;6.09;62.40;100506.00;5172610;27;97244;-79
2024/04/21 03:47:41;;;;;;;15.32;8.20;;;;;;;6.02;62.25;100491.31;5234245;27;94513;-80
2024/04/21 03:50:07;;;;;;;12.88;7.55;;;;;;;5.93;61.73;100464.47;5206559;27;95194;-79
2024/04/21 03:52:32;;;;;;;21.00;8.10;;;;;;;5.94;61.92;100476.66;5205383;27;97146;-80
2024/04/21 03:54:58;;;;;;;17.55;9.00;;;;;;;6.04;61.53;100502.56;5229284;26;94429;-79
2024/04/21 03:57:27;;;;;;;16.67;8.48;;;;;;;6.09;61.05;100513.81;5198564;27;94596;-79
2024/04/21 03:59:52;;;;;;;17.42;7.82;;;;;;;5.90;60.87;100470.56;5209825;27;94696;-79
2024/04/21 04:02:18;;;;;;;18.77;8.75;;;;;;;6.15;61.15;100517.22;5197821;27;97084;-79
2024/04/21 04:04:44;;;;;;;15.68;8.73;;;;;;;6.12;61.23;100510.31;5230409;27;95531;-79
2024/04/21 04:07:09;;;;;;;14.82;8.05;;;;;;;6.12;61.31;100513.78;5173567;27;94627;-80
2024/04/21 04:09:35;;;;;;;17.45;8.70;;;;;;;5.83;60.74;100474.16;5234818;26;94607;-79
2024/04/21 04:12:00;;;;;;;19.35;9.43;;;;;;;6.08;60.41;100522.53;5202103;27;97808;-79
2024/04/21 04:14:26;;;;;;;16.48;8.38;;;;;;;5.97;60.03;100489.66;5172036;27;97014;-79
2024/04/21 04:16:51;;;;;;;18.35;10.60;;;;;;;6.06;59.91;100510.38;5233582;26;94638;-80
2024/04/21 04:19:17;;;;;;;19.35;9.20;;;;;;;6.19;59.90;100524.97;5202089;27;94685;-79
2024/04/21 04:21:42;;;;;;;19.40;8.38;;;;;;;6.07;59.47;100507.75;5227344;27;94457;-80
2024/04/21 04:24:07;;;;;;;14.93;8.27;;;;;;;6.13;59.20;100515.47;5229510;27;94534;-79
2024/04/21 04:26:33;;;;;;;17.40;7.43;;;;;;;6.03;58.36;100519.09;5233928;27;94507;-79
2024/04/21 04:28:58;;;;;;;15.95;7.57;;;;;;;5.98;58.68;100497.44;5207450;27;94569;-79
2024/04/21 04:31:24;;;;;;;15.07;7.50;;;;;;;6.10;58.04;100517.28;5228406;27;97304;-80
2024/04/21 04:33:50;;;;;;;11.40;6.95;;;;;;;6.04;58.01;100518.22;5230631;26;94617;-80
2024/04/21 04:36:15;;;;;;;14.48;7.90;;;;;;;6.09;57.88;100524.25;5233946;26;94595;-80
2024/04/21 04:38:41;;;;;;;13.20;7.53;;;;;;;6.08;58.27;100532.94;5230125;27;94610;-80
2024/04/21 04:41:06;;;;;;;12.90;8.18;;;;;;;5.91;58.24;100519.22;5233330;26;94541;-80
2024/04/21 04:43:32;;;;;;;15.48;8.52;;;;;;;5.89;58.27;100527.03;5200924;27;97594;-80
2024/04/21 04:45:58;;;;;;;13.02;8.13;;;;;;;5.77;58.22;100544.56;5195745;27;94579;-80
2024/04/21 04:48:23;;;;;;;16.73;7.18;;;;;;;5.76;58.45;100524.59;5235898;27;94585;-79
2024/04/21 04:50:49;;;;;;;13.70;8.15;;;;;;;5.84;58.43;100525.38;5229495;26;94620;-80
2024/04/21 04:53:14;;;;;;;14.02;7.75;;;;;;;5.95;58.06;100517.47;5168014;27;98086;-80
2024/04/21 04:55:42;;;;;;;13.02;7.60;;;;;;;6.11;58.05;100538.13;5196660;27;94464;-80
2024/04/21 04:58:09;;;;;;;13.18;7.93;;;;;;;5.80;57.93;100508.06;5202723;27;94569;-80
2024/04/21 05:00:34;;;;;;;14.75;8.38;;;;;;;6.26;57.57;100541.41;5232090;26;94640;-80
2024/04/21 05:03:00;;;;;;;14.38;7.95;;;;;;;6.48;56.61;100544.59;5205782;27;96083;-80
2024/04/21 05:05:25;;;;;;;11.43;7.20;;;;;;;6.64;56.23;100517.41;5234657;27;94510;-80
2024/04/21 05:07:51;;;;;;;12.15;7.68;;;;;;;7.10;55.24;100510.59;5178442;27;93620;-80
2024/04/21 05:10:16;;;;;;;14.88;8.60;;;;;;;7.51;54.46;100538.63;5205431;27;97654;-80
2024/04/21 05:12:42;;;;;;;15.15;7.70;;;;;;;7.49;54.49;100549.09;5233684;27;94621;-80
2024/04/21 05:15:08;;;;;;;12.80;7.28;;;;;;;7.49;54.93;100546.47;5178551;27;94638;-79
2024/04/21 05:17:33;;;;;;;13.07;7.53;;;;;;;7.51;53.45;100538.63;5178381;27;93542;-79
2024/04/21 05:19:58;;;;;;;11.60;6.28;;;;;;;8.49;51.46;100525.34;5205428;27;97420;-79
2024/04/21 05:22:24;;;;;;;12.82;7.35;;;;;;;10.59;46.84;100527.72;5176584;26;96444;-79
2024/04/21 05:24:49;;;;;;;11.65;6.20;;;;;;;10.46;46.26;100518.47;5205983;27;94729;-79
2024/04/21 05:27:15;;;;;;;9.77;5.75;;;;;;;12.89;42.34;100536.22;5233983;27;94947;-80
2024/04/21 05:29:40;;;;;;;10.50;6.07;;;;;;;15.10;37.94;100542.25;5204830;27;94642;-81
2024/04/21 05:32:06;;;;;;;9.82;5.45;;;;;;;17.11;33.69;100533.38;5226970;27;94726;-80
2024/04/21 05:34:32;;;;;;;8.98;5.00;;;;;;;21.15;29.21;100497.69;5230312;26;94594;-80
2024/04/21 05:36:57;;;;;;;6.75;4.63;;;;;;;21.96;26.71;100508.44;5227726;27;94783;-80
2024/04/21 05:39:25;;;;;;;8.13;4.75;;;;;;;22.85;25.04;100510.19;5219867;26;94530;-79
2024/04/21 05:41:51;;;;;;;11.43;4.85;;;;;;;24.57;23.70;100492.78;5172257;27;97414;-79
2024/04/21 05:44:17;;;;;;;6.43;3.95;;;;;;;24.94;22.09;100516.28;5229815;26;94785;-79
2024/04/21 05:46:42;;;;;;;5.05;3.10;;;;;;;25.82;20.54;100520.63;5231965;27;94803;-78
2024/04/21 05:49:07;;;;;;;5.05;3.50;;;;;;;26.92;20.07;100516.28;5229508;27;97305;-79
2024/04/21 05:51:34;;;;;;;6.20;3.75;;;;;;;27.04;19.03;100515.88;5221145;27;94861;-79
2024/04/21 05:53:59;;;;;;;5.85;3.17;;;;;;;28.06;18.21;100517.19;5222876;27;94723;-82
2024/04/21 05:56:25;;;;;;;6.18;3.35;;;;;;;29.77;17.28;100523.97;5226116;27;95292;-81
2024/04/21 05:58:50;;;;;;;6.82;3.10;;;;;;;30.79;16.52;100527.66;5172057;27;96542;-82
2024/04/21 06:01:16;;;;;;;7.82;7.15;;;;;;;31.41;15.85;100531.31;5232289;27;94626;-81
2024/04/21 06:03:41;;;;;;;8.85;8.05;;;;;;;33.08;14.91;100513.56;5234229;26;94642;-81
2024/04/21 06:06:07;;;;;;;12.48;11.57;;;;;;;34.42;14.17;100536.09;5232374;27;94674;-81
2024/04/21 06:08:32;;;;;;;8.18;6.53;;;;;;;34.84;13.51;100523.25;5203286;27;98451;-81
2024/04/21 06:10:58;;;;;;;11.07;10.18;;;;;;;33.55;13.72;100542.03;5217708;27;95645;-81
2024/04/21 06:13:23;;;;;;;3.75;2.78;;;;;;;30.37;16.24;100504.53;5231876;27;94736;-81
2024/04/21 06:15:49;;;;;;;4.20;2.45;;;;;;;34.80;13.25;100526.59;5231474;27;96681;-81
2024/04/21 06:18:15;;;;;;;3.70;2.70;;;;;;;34.93;13.39;100532.06;5203566;27;98634;-82
2024/04/21 06:20:40;;;;;;;5.38;2.70;;;;;;;36.03;13.14;100527.06;5226142;26;95979;-82
2024/04/21 06:23:07;;;;;;;6.88;3.00;;;;;;;37.55;11.64;100502.69;5230478;27;95092;-81
2024/04/21 06:25:32;;;;;;;9.35;3.30;;;;;;;39.32;11.02;100526.41;5231112;27;94812;-81
2024/04/21 06:27:58;;;;;;;7.10;2.83;;;;;;;39.47;10.82;100524.03;5231216;27;99435;-82
2024/04/21 06:30:23;;;;;;;3.40;2.45;;;;;;;39.99;10.31;100510.41;5169366;27;99623;-81
2024/04/21 06:32:49;;;;;;;6.03;2.65;;;;;;;40.04;9.90;100521.50;5197474;27;96154;-82
2024/04/21 06:35:14;;;;;;;3.42;2.60;;;;;;;41.09;9.90;100527.75;5233196;26;95031;-82
2024/04/21 06:37:40;;;;;;;3.13;2.40;;;;;;;41.69;9.18;100525.38;5215164;27;96802;-82
2024/04/21 06:40:06;;;;;;;5.57;2.35;;;;;;;41.80;9.70;100527.19;5196258;27;95467;-81
2024/04/21 06:42:31;;;;;;;2.38;2.03;;;;;;;40.19;9.52;100520.19;5186574;26;94654;-83
2024/04/21 06:44:57;;;;;;;5.65;3.22;;;;;;;39.96;10.04;100527.38;5235591;26;94962;-83
2024/04/21 06:47:22;;;;;;;7.07;2.40;;;;;;;39.01;10.99;100517.38;5232824;26;96287;-83
2024/04/21 06:49:48;;;;;;;3.75;2.50;;;;;;;41.03;9.30;100511.38;5233816;26;98190;-83
2024/04/21 06:52:13;;;;;;;7.32;2.25;;;;;;;42.51;8.77;100503.34;5232205;26;94968;-82
2024/04/21 06:54:39;;;;;;;4.60;2.33;;;;;;;44.74;8.34;100506.19;5233447;26;95006;-83
2024/04/21 06:57:05;;;;;;;3.40;2.83;;;;;;;45.41;7.81;100515.34;5235048;26;96646;-82
2024/04/21 06:59:30;;;;;;;4.05;2.03;;;;;;;45.94;7.56;100518.63;5233931;27;95903;-83
2024/04/21 07:01:56;;;;;;;2.30;2.10;;;;;;;45.12;7.75;100524.28;5204512;27;94699;-83
2024/04/21 07:04:21;;;;;;;10.25;9.63;;;;;;;46.85;7.79;100505.38;5233710;26;95469;-83
2024/04/21 07:06:47;;;;;;;3.42;1.92;;;;;;;39.91;10.22;100515.44;5201118;27;99182;-82
2024/04/21 07:09:12;;;;;;;3.55;2.38;;;;;;;36.65;11.21;100527.50;5231990;27;99316;-82
2024/04/21 07:11:38;;;;;;;7.40;2.50;;;;;;;33.98;12.82;100520.13;5171751;27;96335;-82
2024/04/21 07:14:03;;;;;;;3.92;2.25;;;;;;;31.69;13.52;100520.72;5200366;27;94750;-82
2024/04/21 07:16:29;;;;;;;3.25;2.13;;;;;;;28.57;15.06;100522.66;5229263;26;94729;-82
2024/04/21 07:18:54;;;;;;;4.38;2.53;;;;;;;26.14;17.15;100541.75;5173197;27;98212;-81
2024/04/21 07:21:20;;;;;;;5.22;2.35;;;;;;;34.82;11.85;100527.22;5222996;26;94697;-81
2024/04/21 07:23:45;;;;;;;2.60;2.03;;;;;;;36.24;11.35;100529.53;5222533;26;95788;-83
2024/04/21 07:26:11;;;;;;;4.25;2.20;;;;;;;30.01;14.85;100539.28;5221085;26;96077;-82
2024/04/21 07:28:36;;;;;;;2.83;2.25;;;;;;;34.47;11.75;100538.19;5233629;27;94892;-82
2024/04/21 07:31:02;;;;;;;3.25;2.40;;;;;;;40.92;9.76;100535.09;5177228;27;94614;-82
2024/04/21 07:33:28;;;;;;;2.65;2.17;;;;;;;37.60;10.44;100527.47;5203134;27;95345;-82
2024/04/21 07:35:54;;;;;;;4.35;2.05;;;;;;;34.19;12.93;100536.41;5198304;27;99152;-82
2024/04/21 07:38:19;;;;;;;2.80;2.00;;;;;;;28.16;16.25;100547.59;5206002;27;97223;-81
2024/04/21 07:40:45;;;;;;;3.60;2.78;;;;;;;23.80;19.05;100569.22;5229993;27;94823;-81
2024/04/21 07:43:11;;;;;;;4.15;3.75;;;;;;;22.23;20.66;100557.09;5206300;26;94447;-81
2024/04/21 07:45:37;;;;;;;6.55;2.78;;;;;;;20.83;22.30;100547.25;5173983;26;97782;-81
2024/04/21 07:48:03;;;;;;;4.95;2.50;;;;;;;18.82;23.52;100527.34;5205986;27;97716;-78
2024/04/21 07:50:29;;;;;;;4.45;2.63;;;;;;;22.86;20.60;100551.16;5177443;27;94785;-81
2024/04/21 07:52:54;;;;;;;3.60;2.70;;;;;;;20.87;21.84;100541.59;5195913;27;94617;-79
2024/04/21 07:55:20;;;;;;;3.83;2.72;;;;;;;23.55;20.27;100535.59;5165670;27;97759;-83
2024/04/21 07:57:45;;;;;;;5.25;3.15;;;;;;;19.97;22.66;100564.03;5166251;27;96867;-81
2024/04/21 08:00:11;;;;;;;2.33;1.80;;;;;;;18.41;23.61;100528.13;5177743;27;94846;-78
2024/04/21 08:02:37;;;;;;;8.13;5.13;;;;;;;17.04;25.40;100563.81;5186972;27;94552;-78
2024/04/21 08:05:03;;;;;;;3.85;2.05;;;;;;;16.15;26.62;100577.50;5229777;27;94699;-79
2024/04/21 08:07:28;;;;;;;3.72;2.30;;;;;;;15.34;28.09;100563.13;5190447;27;97386;-81
2024/04/21 08:09:53;;;;;;;4.90;2.10;;;;;;;15.46;28.45;100556.38;5228306;26;94691;-77
2024/04/21 08:12:19;;;;;;;6.00;2.33;;;;;;;15.28;28.74;100547.56;5209015;26;94676;-81
2024/04/21 08:14:45;;;;;;;5.43;2.60;;;;;;;14.86;29.03;100532.88;5226192;26;94763;-81
2024/04/21 08:17:10;;;;;;;3.45;2.10;;;;;;;14.55;29.88;100575.75;5205541;27;97387;-82
2024/04/21 08:19:36;;;;;;;4.35;2.70;;;;;;;14.76;30.33;100587.97;5233276;27;94785;-83
2024/04/21 08:22:01;;;;;;;4.22;2.65;;;;;;;14.91;29.52;100558.16;5225818;27;94708;-81
2024/04/21 08:24:27;;;;;;;4.03;2.17;;;;;;;14.74;30.32;100546.69;5173151;27;97270;-82
2024/04/21 08:26:54;;;;;;;6.53;2.50;;;;;;;13.43;31.21;100578.00;5200891;27;97910;-81
2024/04/21 08:29:22;;;;;;;5.25;2.60;;;;;;;13.37;31.16;100597.56;5193725;27;94933;-81
2024/04/21 08:31:49;;;;;;;5.18;2.65;;;;;;;12.63;32.43;100608.38;5191813;26;1164038;-81
2024/04/21 08:34:14;;;;;;;4.72;2.45;;;;;;;12.93;32.37;100613.38;5235156;27;94648;-80
2024/04/21 08:36:40;;;;;;;4.25;2.67;;;;;;;12.50;33.27;100607.09;5226400;27;97890;-79
2024/04/21 08:39:05;;;;;;;7.30;2.78;;;;;;;13.06;32.35;100590.00;5231331;27;94668;-80
2024/04/21 08:41:39;;;;;;;6.68;3.38;;;;;;;14.53;31.68;100598.75;5228757;27;94625;-81
2024/04/21 08:44:06;;;;;;;5.40;2.35;;;;;;;18.68;25.67;100528.19;5168936;27;97681;-82
2024/04/21 08:46:32;;;;;;;2.97;2.17;;;;;;;15.33;28.59;100553.47;5195872;27;97524;-81
2024/04/21 08:48:58;;;;;;;4.95;2.92;;;;;;;14.18;31.24;100595.88;5214265;27;94738;-82
2024/04/21 08:51:25;;;;;;;8.43;3.45;;;;;;;13.80;32.28;100607.19;5207510;27;94810;-83
2024/04/21 08:53:50;;;;;;;7.07;3.45;;;;;;;13.31;32.93;100566.19;5235590;26;94742;-82
2024/04/21 08:56:21;;;;;;;6.38;2.80;;;;;;;13.43;32.81;100570.09;5218959;26;94824;-83
2024/04/21 08:58:50;;;;;;;11.50;3.38;;;;;;;13.64;33.06;100574.44;5174411;27;94740;-82
2024/04/21 09:01:19;;;;;;;3.78;2.83;;;;;;;13.36;32.41;100604.63;5179422;27;94608;-83
2024/04/21 09:03:47;;;;;;;7.55;2.75;;;;;;;13.18;33.09;100610.63;5216926;26;94650;-82
2024/04/21 09:06:15;;;;;;;5.35;3.20;;;;;;;13.00;33.45;100601.69;5214119;27;94806;-81
2024/04/21 09:08:41;;;;;;;5.75;3.30;;;;;;;12.92;33.82;100564.22;5225301;26;94645;-82
2024/04/21 09:11:07;;;;;;;6.07;3.35;;;;;;;14.07;32.49;100596.34;5225722;26;94831;-83
2024/04/21 09:13:32;;;;;;;5.75;2.88;;;;;;;13.57;33.83;100607.31;5193969;27;94563;-81
2024/04/21 09:15:58;;;;;;;5.13;2.97;;;;;;;13.01;34.11;100598.13;5233400;27;94641;-80
2024/04/21 09:18:24;;;;;;;5.88;3.55;;;;;;;13.03;34.54;100614.75;5216998;26;95315;-80
2024/04/21 09:20:50;;;;;;;7.70;4.07;;;;;;;12.47;34.69;100586.16;5213290;27;94663;-80
2024/04/21 09:23:16;;;;;;;5.85;3.90;;;;;;;12.45;34.53;100616.97;5233702;26;95279;-80
2024/04/21 09:25:41;;;;;;;4.40;3.15;;;;;;;12.75;34.20;100593.88;5156011;27;97249;-80
2024/04/21 09:28:07;;;;;;;8.30;3.45;;;;;;;14.22;33.04;100600.09;5233570;27;94777;-80
2024/04/21 09:30:32;;;;;;;5.38;3.60;;;;;;;14.09;32.82;100604.22;5175788;27;95673;-80
2024/04/21 09:32:58;;;;;;;6.43;3.40;;;;;;;13.35;33.96;100595.00;5199759;27;94751;-80
2024/04/21 09:35:23;;;;;;;5.13;3.20;;;;;;;13.48;34.57;100600.63;5166024;27;97943;-80
2024/04/21 09:37:52;;;;;;;5.57;3.30;;;;;;;12.54;34.63;100558.69;5224885;27;94727;-80
2024/04/21 09:40:18;;;;;;;4.93;3.50;;;;;;;12.38;35.39;100600.50;5214240;26;94491;-80
2024/04/21 09:42:45;;;;;;;6.07;3.15;;;;;;;12.00;35.61;100599.28;5167514;27;97515;-78
2024/04/21 09:45:13;;;;;;;5.68;3.30;;;;;;;11.83;36.77;100596.34;5196604;27;97212;-74
2024/04/21 09:47:39;;;;;;;6.15;3.63;;;;;;;11.52;36.95;100602.66;5233542;26;94717;-80
2024/04/21 09:50:06;;;;;;;5.28;3.30;;;;;;;11.76;36.72;100600.97;5205210;27;94699;-79
2024/04/21 09:52:32;;;;;;;8.23;4.28;;;;;;;11.81;37.33;100603.41;5167705;27;98041;-79
2024/04/21 09:54:58;;;;;;;6.60;3.65;;;;;;;11.73;37.09;100603.72;5166677;27;96249;-79
2024/04/21 09:57:24;;;;;;;6.57;3.47;;;;;;;11.29;36.46;100564.84;5231057;27;94589;-79
2024/04/21 10:00:03;;;;;;;5.25;3.05;;;;;;;11.13;37.42;100599.56;5228353;26;93580;-80
2024/04/21 10:02:36;;;;;;;5.17;2.63;;;;;;;11.23;37.52;100607.09;5204690;27;94718;-90
2024/04/21 10:05:13;;;;;;;6.93;4.05;;;;;;;11.46;37.42;100610.72;5199534;26;96863;-81
2024/04/21 10:07:39;;;;;;;7.20;3.95;;;;;;;11.86;36.94;100607.66;5200144;27;94563;-81
2024/04/21 10:10:10;;;;;;;5.32;3.08;;;;;;;11.62;37.12;100600.56;5169312;27;94743;-81
2024/04/21 10:12:36;;;;;;;8.33;4.37;;;;;;;11.26;37.27;100590.38;5238531;26;97789;-80
2024/04/21 10:15:04;;;;;;;7.43;4.18;;;;;;;11.44;38.04;100604.69;5198249;27;94802;-82
2024/04/21 10:17:29;;;;;;;8.25;4.05;;;;;;;11.21;37.94;100568.66;5186432;27;94606;-81
2024/04/21 10:20:05;;;;;;;5.20;3.97;;;;;;;11.48;38.10;100607.16;5234291;27;95116;-81
2024/04/21 10:22:34;;;;;;;6.95;3.22;;;;;;;11.64;37.29;100593.50;5225588;27;94676;-81
2024/04/21 10:25:03;;;;;;;6.20;3.10;;;;;;;11.64;37.56;100609.28;5199755;27;97309;-81
2024/04/21 10:27:29;;;;;;;5.03;2.95;;;;;;;11.22;38.25;100568.59;5223732;27;94673;-80
2024/04/21 10:29:54;;;;;;;7.57;3.60;;;;;;;10.94;38.25;100566.00;5220547;27;94758;-80
2024/04/21 10:32:24;;;;;;;10.13;3.25;;;;;;;11.02;38.98;100594.63;5219141;27;94718;-79
2024/04/21 10:34:50;;;;;;;11.10;5.20;;;;;;;11.09;38.70;100607.53;5182710;27;97943;-79
2024/04/21 10:37:24;;;;;;;4.97;3.15;;;;;;;11.12;39.19;100619.72;5197999;27;94767;-80
2024/04/21 10:39:59;;;;;;;8.60;7.25;;;;;;;11.08;38.87;100618.97;5215028;27;94542;-80
2024/04/21 10:42:25;;;;;;;8.32;7.72;;;;;;;11.05;38.75;100611.19;5200977;27;96809;-79
2024/04/21 10:44:51;;;;;;;6.50;3.40;;;;;;;11.06;38.70;100597.13;5224507;27;94630;-80
2024/04/21 10:47:16;;;;;;;5.97;3.42;;;;;;;10.99;39.06;100592.97;5231324;27;94629;-79
2024/04/21 10:49:42;;;;;;;4.85;3.30;;;;;;;10.98;39.06;100577.25;5226542;27;94809;-79
2024/04/21 10:52:08;;;;;;;5.40;2.88;;;;;;;10.80;39.21;100574.31;5216012;27;95382;-81
2024/04/21 10:54:35;;;;;;;9.40;3.90;;;;;;;11.06;39.78;100610.25;5219684;27;94709;-79
2024/04/21 10:57:03;;;;;;;10.65;3.47;;;;;;;10.88;39.39;100613.47;5231899;27;94632;-80
2024/04/21 10:59:30;;;;;;;6.78;3.83;;;;;;;11.31;38.47;100615.59;5230767;27;94672;-79
2024/04/21 11:01:55;;;;;;;4.97;3.75;;;;;;;11.04;38.72;100542.91;5192777;27;95908;-81
2024/04/21 11:04:21;;;;;;;6.13;3.78;;;;;;;10.99;38.84;100589.47;5220779;27;94823;-78
2024/04/21 11:06:46;;;;;;;3.65;3.13;;;;;;;11.27;38.23;100573.69;5180843;27;94721;-78
2024/04/21 11:09:12;;;;;;;6.65;3.58;;;;;;;11.44;38.62;100620.47;5151372;27;94626;-79
2024/04/21 11:11:37;;;;;;;8.13;4.82;;;;;;;11.23;39.00;100577.34;5230032;27;94699;-79
2024/04/21 11:14:03;;;;;;;5.68;3.60;;;;;;;11.17;38.74;100591.53;5228547;27;94751;-82
2024/04/21 11:16:30;;;;;;;3.75;3.10;;;;;;;11.09;38.89;100572.53;5221821;27;94655;-82